Time;durP1;ratioP1;P1;durP2;ratioP2;P2;SDS_P1;SDS_P2;PMS_P1;PMS_P2;Temp;Humidity;BMP_temperature;BMP_pressure;BME280_temperature;BME280_humidity;BME280_pressure;Samples;Min_cycle;Max_cycle;Signal;HPM_P1;HPM_P2
2023/03/19 00:03:57;;;;;;;72.80;34.50;;;;;;;3.67;49.28;98693.23;433626;1257;108318;-39
2023/03/19 00:14:04;;;;;;;65.40;31.30;;;;;;;3.71;49.41;98696.27;433979;1269;98024;-40
2023/03/19 00:24:12;;;;;;;73.80;32.20;;;;;;;3.74;49.57;98692.80;433899;1261;111955;-40
2023/03/19 00:34:19;;;;;;;80.60;34.60;;;;;;;3.66;49.72;98701.09;434043;1260;107871;-40
2023/03/19 00:44:26;;;;;;;70.20;32.60;;;;;;;3.50;49.83;98701.23;434112;1261;99172;-40
2023/03/19 00:54:35;;;;;;;79.00;36.80;;;;;;;3.34;50.04;98692.41;433955;1260;112979;-40
2023/03/19 01:04:42;;;;;;;85.30;36.40;;;;;;;3.18;50.43;98685.45;433973;1269;106804;-40
2023/03/19 01:14:50;;;;;;;80.90;36.60;;;;;;;3.07;50.60;98693.78;434036;1261;98065;-40
2023/03/19 01:24:57;;;;;;;87.90;38.30;;;;;;;2.97;50.65;98697.39;433862;1261;112554;-40
2023/03/19 01:45:37;;;;;;;92.70;42.00;;;;;;;2.72;51.09;98703.52;434048;1260;99330;-42
2023/03/19 01:55:46;;;;;;;102.20;43.60;;;;;;;2.57;51.45;98704.08;433764;1257;111990;-40
2023/03/19 02:05:55;;;;;;;100.30;44.50;;;;;;;2.47;51.70;98695.05;433964;1260;107199;-40
2023/03/19 02:16:03;;;;;;;106.40;47.70;;;;;;;2.32;52.04;98695.23;434010;1257;99471;-40
2023/03/19 02:26:12;;;;;;;104.70;44.90;;;;;;;2.18;52.19;98687.63;434053;1255;112845;-40
2023/03/19 02:36:21;;;;;;;100.10;45.60;;;;;;;2.07;52.52;98691.19;435113;1254;108353;-40
2023/03/19 02:46:28;;;;;;;104.80;47.10;;;;;;;1.97;52.92;98688.34;435134;1252;99240;-40
2023/03/19 02:56:35;;;;;;;114.90;47.60;;;;;;;1.97;53.19;98692.44;435240;1254;111297;-40
2023/03/19 03:06:42;;;;;;;100.20;44.90;;;;;;;2.00;53.47;98698.86;435079;1257;108518;-40
2023/03/19 03:16:49;;;;;;;92.30;44.30;;;;;;;2.01;53.62;98700.89;435191;1252;99215;-40
2023/03/19 03:26:57;;;;;;;89.50;43.10;;;;;;;1.89;53.84;98703.66;435176;1255;113052;-40
2023/03/19 03:37:05;;;;;;;106.80;47.60;;;;;;;1.80;54.19;98710.35;434599;1256;450230;-40
2023/03/19 03:47:13;;;;;;;97.00;46.10;;;;;;;1.72;55.02;98714.27;435236;1255;99323;-39
2023/03/19 03:57:20;;;;;;;118.60;53.60;;;;;;;1.68;55.42;98711.77;435162;1256;110886;-40
2023/03/19 04:07:28;;;;;;;97.30;43.00;;;;;;;1.62;55.65;98707.12;435097;1257;109409;-40
2023/03/19 04:27:41;;;;;;;93.70;41.60;;;;;;;1.65;56.61;98706.98;435241;1252;110271;-41
2023/03/19 04:37:49;;;;;;;88.80;38.60;;;;;;;1.62;56.99;98707.20;435036;1257;109464;-40
2023/03/19 04:47:57;;;;;;;85.30;36.80;;;;;;;1.56;57.27;98702.51;435063;1254;99276;-40
2023/03/19 04:58:04;;;;;;;87.00;39.30;;;;;;;1.53;57.60;98697.17;435042;1253;110301;-40
2023/03/19 05:08:12;;;;;;;81.50;35.10;;;;;;;1.59;58.13;98692.26;435034;1258;108232;-40
2023/03/19 05:18:19;;;;;;;81.50;39.10;;;;;;;1.71;58.52;98689.47;435014;1257;99244;-41
2023/03/19 05:28:27;;;;;;;71.70;36.60;;;;;;;1.90;59.02;98691.45;435044;1258;113301;-41
2023/03/19 05:38:34;;;;;;;73.60;34.00;;;;;;;2.50;59.44;98690.79;435101;1253;106941;-41
2023/03/19 05:48:41;;;;;;;77.20;35.30;;;;;;;3.25;59.05;98697.83;435033;1252;99225;-40
2023/03/19 05:58:48;;;;;;;79.70;34.90;;;;;;;4.04;58.27;98698.04;434986;1253;111700;-40
2023/03/19 06:08:55;;;;;;;70.90;36.10;;;;;;;4.88;57.40;98701.98;434996;1257;108539;-40
2023/03/19 06:19:02;;;;;;;76.10;37.40;;;;;;;5.75;56.12;98703.85;435055;1254;99211;-40
2023/03/19 06:29:09;;;;;;;68.70;36.00;;;;;;;6.45;54.99;98708.86;435199;1253;111805;-40
2023/03/19 06:39:17;;;;;;;65.60;33.40;;;;;;;7.24;54.11;98712.77;435134;1252;108329;-40
2023/03/19 06:49:24;;;;;;;53.90;30.00;;;;;;;7.73;53.38;98720.52;435306;1253;99323;-40
2023/03/19 06:59:31;;;;;;;50.40;29.20;;;;;;;8.27;53.03;98722.91;435339;1252;110739;-40
2023/03/19 07:09:39;;;;;;;50.90;28.10;;;;;;;8.47;52.37;98717.50;435197;1255;108572;-39
2023/03/19 07:19:46;;;;;;;47.70;25.60;;;;;;;8.39;52.58;98719.14;435156;1253;98524;-40
2023/03/19 07:40:00;;;;;;;41.00;24.00;;;;;;;8.83;52.81;98733.89;435155;1253;109418;-40
2023/03/19 07:50:09;;;;;;;31.30;15.40;;;;;;;9.47;52.66;98724.54;435194;1253;98303;-40
2023/03/19 08:00:16;;;;;;;;;;;;;;;9.96;52.04;98720.30;435271;1256;108088;-40
2023/03/19 08:10:24;;;;;;;19.60;12.10;;;;;;;10.43;51.76;98714.12;435042;1253;98103;-41
2023/03/19 08:20:32;;;;;;;20.40;11.60;;;;;;;10.99;51.27;98708.73;435112;1258;112018;-41
2023/03/19 08:30:40;;;;;;;22.10;12.40;;;;;;;11.72;50.36;98707.91;435056;1256;108266;-41
2023/03/19 08:40:47;;;;;;;19.40;11.60;;;;;;;12.24;49.47;98708.28;435195;1256;98013;-41
2023/03/19 08:50:53;;;;;;;15.00;10.20;;;;;;;12.63;48.71;98706.67;434992;1255;108309;-41
2023/03/19 09:11:07;;;;;;;12.90;9.60;;;;;;;13.75;47.60;98700.66;435192;1253;111292;-41
2023/03/19 09:21:14;;;;;;;11.90;8.30;;;;;;;14.27;46.75;98701.38;435203;1253;108747;-42
2023/03/19 09:31:21;;;;;;;18.60;11.00;;;;;;;14.29;45.95;98695.80;435049;1253;99276;-40
2023/03/19 09:41:34;;;;;;;9.70;7.40;;;;;;;14.26;46.10;98693.17;434848;1255;109300;-41
2023/03/19 09:51:41;;;;;;;11.10;8.00;;;;;;;14.70;46.02;98693.20;434871;1253;99227;-41
2023/03/19 10:11:58;;;;;;;9.50;7.50;;;;;;;14.65;45.26;98687.48;434880;1259;107228;-40
2023/03/19 10:22:06;;;;;;;12.60;7.60;;;;;;;14.85;45.18;98677.62;435032;1254;99204;-41
2023/03/19 10:32:13;;;;;;;10.60;8.00;;;;;;;14.96;44.85;98669.12;435025;1256;107702;-41
2023/03/19 10:52:33;;;;;;;13.20;7.80;;;;;;;15.17;44.11;98659.49;434996;1257;111624;-41
2023/03/19 11:02:46;;;;;;;13.20;8.50;;;;;;;15.39;43.45;98649.26;434951;1257;107561;-41
2023/03/19 11:12:52;;;;;;;12.00;7.60;;;;;;;15.32;42.22;98637.08;435044;1253;99237;-41
2023/03/19 11:33:22;;;;;;;10.70;7.50;;;;;;;15.41;41.70;98609.79;434838;1259;99293;-40
2023/03/19 11:43:47;;;;;;;11.30;7.90;;;;;;;15.67;42.08;98601.78;435174;1256;111468;-41
2023/03/19 11:53:55;;;;;;;16.10;9.90;;;;;;;15.56;41.83;98591.08;434844;1256;107144;-40
2023/03/19 12:04:22;;;;;;;17.10;9.60;;;;;;;15.73;42.00;98590.02;434783;1267;99237;-40
2023/03/19 12:14:31;;;;;;;20.60;9.80;;;;;;;15.86;41.30;98581.63;434916;1258;107322;-41
2023/03/19 12:24:38;;;;;;;13.60;9.20;;;;;;;15.68;40.79;98572.04;435068;1252;98810;-40
2023/03/19 12:45:00;;;;;;;15.30;9.60;;;;;;;15.30;40.09;98565.89;434858;1253;106945;-40
2023/03/19 12:55:14;;;;;;;14.30;9.50;;;;;;;15.40;40.76;98552.33;435102;1253;98073;-42
2023/03/19 13:05:22;;;;;;;15.50;9.70;;;;;;;15.39;39.78;98546.58;435036;1257;107806;-41
2023/03/19 13:15:27;;;;;;;13.20;9.20;;;;;;;15.32;40.12;98540.20;435053;1255;98009;-40
2023/03/19 13:25:39;;;;;;;12.50;9.20;;;;;;;15.35;39.57;98524.29;434927;1253;110058;-41
2023/03/19 13:35:49;;;;;;;19.40;12.50;;;;;;;15.52;40.09;98528.05;434971;1253;108636;-42
2023/03/19 13:46:24;;;;;;;28.70;16.40;;;;;;;15.55;40.41;98529.41;435046;1253;98594;-41
2023/03/19 13:56:54;;;;;;;30.10;19.20;;;;;;;15.77;40.86;98522.46;435070;1259;108163;-41
2023/03/19 14:07:10;;;;;;;15.20;10.90;;;;;;;15.75;41.04;98508.45;435022;1253;99244;-40
2023/03/19 14:17:15;;;;;;;17.60;11.60;;;;;;;15.65;40.77;98503.11;435068;1257;111656;-42
2023/03/19 14:27:23;;;;;;;15.90;10.10;;;;;;;15.56;40.99;98502.61;434892;1259;108614;-40
2023/03/19 14:37:29;;;;;;;15.30;11.70;;;;;;;15.29;41.09;98498.06;435003;1257;98841;-40
2023/03/19 14:47:42;;;;;;;14.90;9.90;;;;;;;15.15;41.51;98500.27;435006;1257;109746;-41
2023/03/19 14:57:49;;;;;;;18.60;9.00;;;;;;;15.13;41.82;98501.58;434985;1259;98856;-41
2023/03/19 15:07:56;;;;;;;17.70;9.80;;;;;;;15.00;41.84;98498.36;435078;1266;112081;-40
2023/03/19 15:18:04;;;;;;;18.50;13.60;;;;;;;14.81;41.91;98503.50;434981;1254;108182;-41
2023/03/19 15:28:13;;;;;;;13.80;9.70;;;;;;;14.62;42.22;98502.71;434872;1257;98854;-40
2023/03/19 15:38:21;;;;;;;13.90;9.60;;;;;;;14.46;42.52;98501.19;434754;1254;391562;-41
2023/03/19 15:48:35;;;;;;;18.60;12.10;;;;;;;14.33;42.60;98506.67;435187;1257;99218;-41
2023/03/19 15:58:46;;;;;;;20.40;11.50;;;;;;;14.19;42.89;98515.73;435714;1259;111278;-41
2023/03/19 16:08:55;;;;;;;19.50;14.50;;;;;;;13.97;43.18;98522.80;435634;1257;106757;-41
2023/03/19 16:19:01;;;;;;;29.30;17.10;;;;;;;13.78;43.42;98528.17;435655;1254;97995;-41
2023/03/19 16:29:08;;;;;;;30.40;17.00;;;;;;;13.50;43.71;98526.00;435225;1259;108443;-40
2023/03/19 16:39:14;;;;;;;36.20;16.50;;;;;;;13.16;44.02;98534.75;434666;1254;99228;-41
2023/03/19 16:49:21;;;;;;;18.00;12.70;;;;;;;12.78;44.39;98537.05;434569;1259;111586;-41
2023/03/19 16:59:29;;;;;;;31.30;14.90;;;;;;;12.30;45.04;98541.52;434635;1266;108480;-41
2023/03/19 17:09:36;;;;;;;32.60;18.20;;;;;;;11.78;45.56;98552.65;434281;1254;99224;-40
2023/03/19 17:19:45;;;;;;;40.80;21.40;;;;;;;11.26;46.30;98565.36;434215;1260;108298;-40
2023/03/19 17:29:52;;;;;;;45.90;26.20;;;;;;;10.73;46.96;98562.30;434317;1259;99326;-40
2023/03/19 17:40:00;;;;;;;71.90;33.90;;;;;;;10.25;47.53;98570.68;434168;1259;111738;-40
2023/03/19 17:50:13;;;;;;;67.30;38.00;;;;;;;9.71;48.29;98566.95;434411;1268;110765;-41
2023/03/19 18:00:23;;;;;;;89.90;49.10;;;;;;;9.19;48.93;98573.45;434200;1258;99231;-41
2023/03/19 18:10:31;;;;;;;;;;;;;;;8.81;49.73;98569.10;434393;1255;111486;-41
2023/03/19 18:20:41;;;;;;;91.70;52.90;;;;;;;8.44;50.04;98568.45;434186;1259;107953;-41
2023/03/19 18:30:48;;;;;;;90.70;50.90;;;;;;;8.12;50.75;98576.77;434122;1257;99244;-41
2023/03/19 18:40:55;;;;;;;91.10;51.20;;;;;;;7.90;51.53;98570.02;434203;1257;112765;-40
2023/03/19 18:51:03;;;;;;;112.20;61.40;;;;;;;7.84;51.88;98573.34;434292;1254;108739;-41
2023/03/19 19:01:14;;;;;;;153.30;82.40;;;;;;;7.63;52.32;98579.23;434188;1255;97925;-40
2023/03/19 19:11:22;;;;;;;204.70;108.10;;;;;;;7.50;52.88;98580.30;434361;1258;110262;-40
2023/03/19 19:21:30;;;;;;;215.00;116.10;;;;;;;7.34;53.26;98573.84;434642;1254;108810;-41
2023/03/19 19:31:36;;;;;;;223.30;117.80;;;;;;;7.13;53.65;98578.14;434146;1254;98007;-41
2023/03/19 19:51:49;;;;;;;304.60;158.90;;;;;;;6.94;54.49;98582.58;434141;1257;109817;-41
2023/03/19 20:01:57;;;;;;;397.40;201.20;;;;;;;6.82;54.60;98581.23;434220;1257;99227;-39
2023/03/19 20:12:03;;;;;;;435.60;225.50;;;;;;;6.76;54.94;98578.33;434259;1257;111400;-39
2023/03/19 20:22:10;;;;;;;408.30;203.30;;;;;;;6.78;55.53;98583.91;434431;1257;108688;-41
2023/03/19 20:32:31;;;;;;;317.20;151.00;;;;;;;6.71;55.96;98577.79;434373;1257;98031;-42
2023/03/19 20:42:40;;;;;;;258.10;123.70;;;;;;;6.75;56.22;98583.14;434194;1254;111472;-41
2023/03/19 20:52:47;;;;;;;232.60;105.70;;;;;;;6.83;56.48;98584.41;434090;1257;108680;-41
2023/03/19 21:02:56;;;;;;;188.60;90.30;;;;;;;6.80;56.88;98574.89;434107;1257;99278;-40
2023/03/19 21:13:05;;;;;;;166.90;80.60;;;;;;;6.71;57.07;98575.89;434198;1257;111745;-39
2023/03/19 21:23:10;;;;;;;161.40;77.50;;;;;;;6.59;57.41;98569.27;434265;1258;106970;-40
2023/03/19 21:33:20;;;;;;;169.10;75.50;;;;;;;6.47;57.60;98568.98;434272;1254;98033;-40
2023/03/19 21:43:26;;;;;;;142.30;71.20;;;;;;;6.34;58.18;98555.45;434420;1253;111364;-42
2023/03/19 21:53:34;;;;;;;161.70;73.30;;;;;;;6.28;58.53;98554.34;434256;1257;108771;-40
2023/03/19 22:03:41;;;;;;;148.40;70.70;;;;;;;6.20;58.61;98558.07;434252;1257;97990;-40
2023/03/19 22:13:49;;;;;;;154.20;73.10;;;;;;;6.08;58.77;98561.20;434381;1254;111878;-40
2023/03/19 22:23:56;;;;;;;167.00;76.90;;;;;;;5.91;58.94;98567.36;434159;1257;107727;-41
2023/03/19 22:34:03;;;;;;;124.00;64.20;;;;;;;5.78;59.01;98557.66;434250;1254;98650;-42
2023/03/19 22:44:13;;;;;;;125.80;64.90;;;;;;;5.70;59.25;98550.27;434142;1257;107210;-40
2023/03/19 22:54:19;;;;;;;168.50;81.80;;;;;;;5.63;59.52;98547.14;434310;1257;97968;-40
2023/03/19 23:04:29;;;;;;;175.30;80.20;;;;;;;5.42;59.91;98546.05;434327;1257;111082;-41
2023/03/19 23:14:36;;;;;;;182.30;82.90;;;;;;;5.16;60.15;98546.98;434238;1254;108656;-41
2023/03/19 23:34:50;;;;;;;147.60;73.50;;;;;;;4.81;60.81;98545.28;434185;1258;110345;-39
2023/03/19 23:45:16;;;;;;;124.00;64.80;;;;;;;4.76;61.14;98536.77;434231;1254;109333;-41
2023/03/19 23:55:24;;;;;;;70.20;40.50;;;;;;;4.88;61.46;98527.17;434346;1257;98022;-41
